sensor_id;sensor_type;location;lat;lon;timestamp;temperature;humidity
27823;DHT22;29019;47.630;8.262;2022-09-12T00:02:30;22.60;44.90
27823;DHT22;29019;47.630;8.262;2022-09-12T00:06:32;22.60;44.90
27823;DHT22;29019;47.630;8.262;2022-09-12T00:10:36;22.50;44.90
27823;DHT22;29019;47.630;8.262;2022-09-12T00:14:36;22.50;44.90
27823;DHT22;29019;47.630;8.262;2022-09-12T00:18:37;22.50;44.90
27823;DHT22;29019;47.630;8.262;2022-09-12T00:22:37;22.50;44.90
27823;DHT22;29019;47.630;8.262;2022-09-12T00:26:37;22.50;44.90
27823;DHT22;29019;47.630;8.262;2022-09-12T00:30:42;22.50;44.90
27823;DHT22;29019;47.630;8.262;2022-09-12T00:34:42;22.50;44.90
27823;DHT22;29019;47.630;8.262;2022-09-12T00:38:43;22.50;44.90
27823;DHT22;29019;47.630;8.262;2022-09-12T00:42:44;22.50;44.90
27823;DHT22;29019;47.630;8.262;2022-09-12T00:46:46;22.40;44.90
27823;DHT22;29019;47.630;8.262;2022-09-12T00:50:48;22.40;44.90
27823;DHT22;29019;47.630;8.262;2022-09-12T00:55:12;22.40;44.90
27823;DHT22;29019;47.630;8.262;2022-09-12T00:59:14;22.40;44.90
27823;DHT22;29019;47.630;8.262;2022-09-12T01:03:17;22.40;44.90
27823;DHT22;29019;47.630;8.262;2022-09-12T01:07:18;22.40;44.90
27823;DHT22;29019;47.630;8.262;2022-09-12T01:11:20;22.40;44.90
27823;DHT22;29019;47.630;8.262;2022-09-12T01:15:21;22.40;44.90
27823;DHT22;29019;47.630;8.262;2022-09-12T01:23:40;22.40;44.90
27823;DHT22;29019;47.630;8.262;2022-09-12T01:27:46;22.40;45.00
27823;DHT22;29019;47.630;8.262;2022-09-12T01:31:58;22.30;44.80
27823;DHT22;29019;47.630;8.262;2022-09-12T01:40:24;22.30;44.90
27823;DHT22;29019;47.630;8.262;2022-09-12T01:44:32;22.30;44.90
27823;DHT22;29019;47.630;8.262;2022-09-12T01:48:35;22.30;44.90
27823;DHT22;29019;47.630;8.262;2022-09-12T01:52:41;22.30;44.90
27823;DHT22;29019;47.630;8.262;2022-09-12T01:56:43;22.30;44.90
27823;DHT22;29019;47.630;8.262;2022-09-12T02:00:47;22.30;44.90
27823;DHT22;29019;47.630;8.262;2022-09-12T02:04:59;22.30;45.00
27823;DHT22;29019;47.630;8.262;2022-09-12T02:09:09;22.30;45.00
27823;DHT22;29019;47.630;8.262;2022-09-12T02:13:12;22.30;45.00
27823;DHT22;29019;47.630;8.262;2022-09-12T02:17:15;22.20;44.90
27823;DHT22;29019;47.630;8.262;2022-09-12T02:21:19;22.30;45.00
27823;DHT22;29019;47.630;8.262;2022-09-12T02:25:21;22.30;45.00
27823;DHT22;29019;47.630;8.262;2022-09-12T02:29:22;22.20;44.90
27823;DHT22;29019;47.630;8.262;2022-09-12T02:33:24;22.20;44.90
27823;DHT22;29019;47.630;8.262;2022-09-12T02:41:35;22.20;44.90
27823;DHT22;29019;47.630;8.262;2022-09-12T02:45:36;22.20;44.90
27823;DHT22;29019;47.630;8.262;2022-09-12T02:49:36;22.20;45.00
27823;DHT22;29019;47.630;8.262;2022-09-12T02:53:37;22.20;45.00
27823;DHT22;29019;47.630;8.262;2022-09-12T02:57:38;22.20;45.00
27823;DHT22;29019;47.630;8.262;2022-09-12T03:14:10;22.10;44.90
27823;DHT22;29019;47.630;8.262;2022-09-12T03:26:29;22.10;44.90
27823;DHT22;29019;47.630;8.262;2022-09-12T03:30:37;22.10;44.90
27823;DHT22;29019;47.630;8.262;2022-09-12T03:34:38;22.10;45.00
27823;DHT22;29019;47.630;8.262;2022-09-12T03:38:39;22.10;44.90
27823;DHT22;29019;47.630;8.262;2022-09-12T03:42:39;22.10;44.90
27823;DHT22;29019;47.630;8.262;2022-09-12T03:46:40;22.10;44.90
27823;DHT22;29019;47.630;8.262;2022-09-12T03:50:40;22.10;44.90
27823;DHT22;29019;47.630;8.262;2022-09-12T03:54:41;22.00;44.90
27823;DHT22;29019;47.630;8.262;2022-09-12T03:58:41;22.00;45.00
27823;DHT22;29019;47.630;8.262;2022-09-12T04:02:41;22.00;44.90
27823;DHT22;29019;47.630;8.262;2022-09-12T04:06:42;22.00;45.00
27823;DHT22;29019;47.630;8.262;2022-09-12T04:10:43;22.00;44.90
27823;DHT22;29019;47.630;8.262;2022-09-12T04:14:43;22.00;45.00
27823;DHT22;29019;47.630;8.262;2022-09-12T04:18:44;22.00;44.90
27823;DHT22;29019;47.630;8.262;2022-09-12T04:22:44;22.00;45.00
27823;DHT22;29019;47.630;8.262;2022-09-12T04:26:45;22.00;45.00
27823;DHT22;29019;47.630;8.262;2022-09-12T04:30:45;22.00;45.00
27823;DHT22;29019;47.630;8.262;2022-09-12T04:34:45;21.90;44.90
27823;DHT22;29019;47.630;8.262;2022-09-12T04:38:46;21.90;44.90
27823;DHT22;29019;47.630;8.262;2022-09-12T04:42:46;21.90;44.90
27823;DHT22;29019;47.630;8.262;2022-09-12T04:46:47;21.90;44.90
27823;DHT22;29019;47.630;8.262;2022-09-12T04:50:47;21.90;44.90
27823;DHT22;29019;47.630;8.262;2022-09-12T04:54:48;21.90;44.90
27823;DHT22;29019;47.630;8.262;2022-09-12T04:58:48;21.90;45.00
27823;DHT22;29019;47.630;8.262;2022-09-12T05:02:49;21.90;44.90
27823;DHT22;29019;47.630;8.262;2022-09-12T05:06:49;21.90;44.90
27823;DHT22;29019;47.630;8.262;2022-09-12T05:10:50;21.90;44.90
27823;DHT22;29019;47.630;8.262;2022-09-12T05:14:50;21.80;44.90
27823;DHT22;29019;47.630;8.262;2022-09-12T05:18:51;21.90;44.90
27823;DHT22;29019;47.630;8.262;2022-09-12T05:22:51;21.90;44.90
27823;DHT22;29019;47.630;8.262;2022-09-12T05:26:52;21.80;44.90
27823;DHT22;29019;47.630;8.262;2022-09-12T05:31:03;21.80;44.90
27823;DHT22;29019;47.630;8.262;2022-09-12T05:35:04;21.80;44.90
27823;DHT22;29019;47.630;8.262;2022-09-12T05:39:04;21.80;44.90
27823;DHT22;29019;47.630;8.262;2022-09-12T05:43:05;21.80;44.90
27823;DHT22;29019;47.630;8.262;2022-09-12T05:47:05;21.80;44.90
27823;DHT22;29019;47.630;8.262;2022-09-12T05:51:07;21.80;44.90
27823;DHT22;29019;47.630;8.262;2022-09-12T05:55:08;21.80;44.90
27823;DHT22;29019;47.630;8.262;2022-09-12T05:59:10;21.80;44.90
27823;DHT22;29019;47.630;8.262;2022-09-12T06:03:11;21.80;44.90
27823;DHT22;29019;47.630;8.262;2022-09-12T06:07:12;21.80;44.90
27823;DHT22;29019;47.630;8.262;2022-09-12T06:11:13;21.80;44.90
27823;DHT22;29019;47.630;8.262;2022-09-12T06:15:14;21.90;44.70
27823;DHT22;29019;47.630;8.262;2022-09-12T06:19:16;22.00;44.40
27823;DHT22;29019;47.630;8.262;2022-09-12T06:23:17;22.10;44.10
27823;DHT22;29019;47.630;8.262;2022-09-12T06:27:17;22.20;44.00
27823;DHT22;29019;47.630;8.262;2022-09-12T06:31:19;22.20;43.90
27823;DHT22;29019;47.630;8.262;2022-09-12T06:35:20;22.30;43.90
27823;DHT22;29019;47.630;8.262;2022-09-12T06:39:21;22.20;43.80
27823;DHT22;29019;47.630;8.262;2022-09-12T06:43:21;22.20;44.50
27823;DHT22;29019;47.630;8.262;2022-09-12T06:47:22;22.20;44.20
27823;DHT22;29019;47.630;8.262;2022-09-12T06:51:22;22.00;44.20
27823;DHT22;29019;47.630;8.262;2022-09-12T06:55:23;22.00;44.40
27823;DHT22;29019;47.630;8.262;2022-09-12T06:59:24;22.00;44.50
27823;DHT22;29019;47.630;8.262;2022-09-12T07:03:24;21.90;44.60
27823;DHT22;29019;47.630;8.262;2022-09-12T07:07:25;21.90;44.60
27823;DHT22;29019;47.630;8.262;2022-09-12T07:11:29;21.90;44.60
27823;DHT22;29019;47.630;8.262;2022-09-12T07:15:31;21.90;44.60
27823;DHT22;29019;47.630;8.262;2022-09-12T07:19:33;21.90;44.60
27823;DHT22;29019;47.630;8.262;2022-09-12T07:23:34;21.80;44.60
27823;DHT22;29019;47.630;8.262;2022-09-12T07:27:34;21.80;44.60
27823;DHT22;29019;47.630;8.262;2022-09-12T07:31:36;21.80;44.70
27823;DHT22;29019;47.630;8.262;2022-09-12T07:35:37;21.80;44.60
27823;DHT22;29019;47.630;8.262;2022-09-12T07:39:37;21.90;44.70
27823;DHT22;29019;47.630;8.262;2022-09-12T07:43:38;21.90;44.70
27823;DHT22;29019;47.630;8.262;2022-09-12T07:47:38;21.90;44.70
27823;DHT22;29019;47.630;8.262;2022-09-12T07:51:40;21.80;44.70
27823;DHT22;29019;47.630;8.262;2022-09-12T07:55:40;21.80;44.70
27823;DHT22;29019;47.630;8.262;2022-09-12T07:59:40;21.80;44.70
27823;DHT22;29019;47.630;8.262;2022-09-12T08:03:42;21.80;44.80
27823;DHT22;29019;47.630;8.262;2022-09-12T08:07:42;21.80;44.80
27823;DHT22;29019;47.630;8.262;2022-09-12T08:11:43;21.90;44.90
27823;DHT22;29019;47.630;8.262;2022-09-12T08:15:43;21.80;44.80
27823;DHT22;29019;47.630;8.262;2022-09-12T08:19:44;21.80;44.80
27823;DHT22;29019;47.630;8.262;2022-09-12T08:23:44;21.90;44.90
27823;DHT22;29019;47.630;8.262;2022-09-12T08:27:45;21.90;44.90
27823;DHT22;29019;47.630;8.262;2022-09-12T08:31:46;21.90;44.90
27823;DHT22;29019;47.630;8.262;2022-09-12T08:35:46;21.90;44.90
27823;DHT22;29019;47.630;8.262;2022-09-12T08:39:46;21.90;44.90
27823;DHT22;29019;47.630;8.262;2022-09-12T08:47:50;21.90;44.90
27823;DHT22;29019;47.630;8.262;2022-09-12T08:51:51;21.90;44.90
27823;DHT22;29019;47.630;8.262;2022-09-12T08:55:52;21.90;44.90
27823;DHT22;29019;47.630;8.262;2022-09-12T08:59:55;21.90;44.90
27823;DHT22;29019;47.630;8.262;2022-09-12T09:04:16;21.90;44.90
27823;DHT22;29019;47.630;8.262;2022-09-12T09:08:23;22.00;45.00
27823;DHT22;29019;47.630;8.262;2022-09-12T09:12:53;21.90;44.90
27823;DHT22;29019;47.630;8.262;2022-09-12T09:16:50;22.00;45.00
27823;DHT22;29019;47.630;8.262;2022-09-12T09:20:54;22.00;44.90
27823;DHT22;29019;47.630;8.262;2022-09-12T09:24:57;22.00;44.90
27823;DHT22;29019;47.630;8.262;2022-09-12T09:29:03;22.00;44.90
27823;DHT22;29019;47.630;8.262;2022-09-12T09:33:05;22.10;44.90
27823;DHT22;29019;47.630;8.262;2022-09-12T09:37:17;22.10;44.90
27823;DHT22;29019;47.630;8.262;2022-09-12T09:41:24;22.10;44.90
27823;DHT22;29019;47.630;8.262;2022-09-12T09:45:27;22.10;44.90
27823;DHT22;29019;47.630;8.262;2022-09-12T09:49:30;22.10;44.90
27823;DHT22;29019;47.630;8.262;2022-09-12T09:53:42;22.10;44.90
27823;DHT22;29019;47.630;8.262;2022-09-12T09:57:45;22.10;44.90
27823;DHT22;29019;47.630;8.262;2022-09-12T10:01:50;22.10;44.90
27823;DHT22;29019;47.630;8.262;2022-09-12T10:05:52;22.10;44.80
27823;DHT22;29019;47.630;8.262;2022-09-12T10:10:03;22.10;44.80
27823;DHT22;29019;47.630;8.262;2022-09-12T10:14:17;22.20;44.90
27823;DHT22;29019;47.630;8.262;2022-09-12T10:18:32;22.20;44.80
27823;DHT22;29019;47.630;8.262;2022-09-12T10:22:32;22.20;44.80
27823;DHT22;29019;47.630;8.262;2022-09-12T10:26:34;22.20;44.80
27823;DHT22;29019;47.630;8.262;2022-09-12T10:30:36;22.30;44.80
27823;DHT22;29019;47.630;8.262;2022-09-12T10:34:43;22.30;44.80
27823;DHT22;29019;47.630;8.262;2022-09-12T10:38:48;22.30;44.80
27823;DHT22;29019;47.630;8.262;2022-09-12T10:46:53;22.30;44.80
27823;DHT22;29019;47.630;8.262;2022-09-12T10:50:54;22.30;44.80
27823;DHT22;29019;47.630;8.262;2022-09-12T10:54:56;22.30;44.70
27823;DHT22;29019;47.630;8.262;2022-09-12T11:03:22;22.40;44.80
27823;DHT22;29019;47.630;8.262;2022-09-12T11:32:30;22.50;44.80
27823;DHT22;29019;47.630;8.262;2022-09-12T11:36:41;22.50;44.80
27823;DHT22;29019;47.630;8.262;2022-09-12T11:41:01;22.50;44.80
27823;DHT22;29019;47.630;8.262;2022-09-12T11:45:23;22.50;44.80
27823;DHT22;29019;47.630;8.262;2022-09-12T11:49:26;22.60;44.80
27823;DHT22;29019;47.630;8.262;2022-09-12T11:53:29;22.50;44.70
27823;DHT22;29019;47.630;8.262;2022-09-12T11:57:51;22.60;45.30
27823;DHT22;29019;47.630;8.262;2022-09-12T12:01:53;22.60;44.70
27823;DHT22;29019;47.630;8.262;2022-09-12T12:06:06;22.60;44.70
27823;DHT22;29019;47.630;8.262;2022-09-12T12:14:43;22.60;44.60
27823;DHT22;29019;47.630;8.262;2022-09-12T12:18:44;22.70;44.70
27823;DHT22;29019;47.630;8.262;2022-09-12T12:22:51;22.70;44.60
27823;DHT22;29019;47.630;8.262;2022-09-12T12:26:53;22.70;44.60
27823;DHT22;29019;47.630;8.262;2022-09-12T12:30:58;22.70;44.60
27823;DHT22;29019;47.630;8.262;2022-09-12T12:35:35;22.70;44.60
27823;DHT22;29019;47.630;8.262;2022-09-12T12:43:32;22.70;44.60
27823;DHT22;29019;47.630;8.262;2022-09-12T12:51:46;22.70;44.60
27823;DHT22;29019;47.630;8.262;2022-09-12T12:55:49;22.70;44.50
27823;DHT22;29019;47.630;8.262;2022-09-12T12:59:54;22.70;44.60
27823;DHT22;29019;47.630;8.262;2022-09-12T13:03:58;22.80;44.60
27823;DHT22;29019;47.630;8.262;2022-09-12T13:08:02;22.80;44.60
27823;DHT22;29019;47.630;8.262;2022-09-12T13:12:05;22.80;44.60
27823;DHT22;29019;47.630;8.262;2022-09-12T13:16:08;22.80;44.60
27823;DHT22;29019;47.630;8.262;2022-09-12T13:24:12;22.80;44.50
27823;DHT22;29019;47.630;8.262;2022-09-12T13:28:15;22.90;44.60
27823;DHT22;29019;47.630;8.262;2022-09-12T13:32:17;22.80;44.50
27823;DHT22;29019;47.630;8.262;2022-09-12T13:36:27;22.80;44.50
27823;DHT22;29019;47.630;8.262;2022-09-12T13:40:35;22.90;44.60
27823;DHT22;29019;47.630;8.262;2022-09-12T13:44:49;22.90;44.50
27823;DHT22;29019;47.630;8.262;2022-09-12T13:48:52;22.90;44.60
27823;DHT22;29019;47.630;8.262;2022-09-12T13:52:57;22.90;44.50
27823;DHT22;29019;47.630;8.262;2022-09-12T13:56:58;22.90;44.50
27823;DHT22;29019;47.630;8.262;2022-09-12T14:01:00;22.90;44.50
27823;DHT22;29019;47.630;8.262;2022-09-12T14:05:00;22.90;44.50
27823;DHT22;29019;47.630;8.262;2022-09-12T14:09:14;22.90;44.50
27823;DHT22;29019;47.630;8.262;2022-09-12T14:13:19;22.90;44.50
27823;DHT22;29019;47.630;8.262;2022-09-12T14:21:32;22.90;44.40
27823;DHT22;29019;47.630;8.262;2022-09-12T14:25:37;22.90;44.40
27823;DHT22;29019;47.630;8.262;2022-09-12T14:29:40;23.00;44.50
27823;DHT22;29019;47.630;8.262;2022-09-12T14:37:48;23.00;44.50
27823;DHT22;29019;47.630;8.262;2022-09-12T14:41:50;22.90;44.40
27823;DHT22;29019;47.630;8.262;2022-09-12T14:45:51;23.00;44.40
27823;DHT22;29019;47.630;8.262;2022-09-12T14:49:53;23.00;44.40
27823;DHT22;29019;47.630;8.262;2022-09-12T14:53:53;23.00;44.40
27823;DHT22;29019;47.630;8.262;2022-09-12T15:06:17;23.00;44.40
27823;DHT22;29019;47.630;8.262;2022-09-12T15:14:49;23.00;44.40
27823;DHT22;29019;47.630;8.262;2022-09-12T15:18:50;23.00;44.40
27823;DHT22;29019;47.630;8.262;2022-09-12T15:22:50;23.00;44.30
27823;DHT22;29019;47.630;8.262;2022-09-12T15:26:51;23.10;44.40
27823;DHT22;29019;47.630;8.262;2022-09-12T15:30:53;23.10;44.40
27823;DHT22;29019;47.630;8.262;2022-09-12T15:34:54;23.10;44.40
27823;DHT22;29019;47.630;8.262;2022-09-12T15:38:55;23.10;44.40
27823;DHT22;29019;47.630;8.262;2022-09-12T15:42:56;23.10;44.30
27823;DHT22;29019;47.630;8.262;2022-09-12T15:46:56;23.10;44.30
27823;DHT22;29019;47.630;8.262;2022-09-12T15:50:57;23.10;44.30
27823;DHT22;29019;47.630;8.262;2022-09-12T15:55:01;23.10;44.40
27823;DHT22;29019;47.630;8.262;2022-09-12T15:59:01;23.10;44.30
27823;DHT22;29019;47.630;8.262;2022-09-12T16:03:01;23.10;44.30
27823;DHT22;29019;47.630;8.262;2022-09-12T16:07:02;23.10;44.30
27823;DHT22;29019;47.630;8.262;2022-09-12T16:11:03;23.10;44.30
27823;DHT22;29019;47.630;8.262;2022-09-12T16:15:06;23.10;44.30
27823;DHT22;29019;47.630;8.262;2022-09-12T16:19:07;23.10;44.30
27823;DHT22;29019;47.630;8.262;2022-09-12T16:23:12;23.10;44.30
27823;DHT22;29019;47.630;8.262;2022-09-12T16:27:12;23.00;44.30
27823;DHT22;29019;47.630;8.262;2022-09-12T16:31:13;23.00;44.30
27823;DHT22;29019;47.630;8.262;2022-09-12T16:35:13;23.00;44.30
27823;DHT22;29019;47.630;8.262;2022-09-12T16:39:14;23.10;44.30
27823;DHT22;29019;47.630;8.262;2022-09-12T16:43:14;23.10;44.30
27823;DHT22;29019;47.630;8.262;2022-09-12T16:47:17;23.10;44.30
27823;DHT22;29019;47.630;8.262;2022-09-12T16:51:19;23.10;44.30
27823;DHT22;29019;47.630;8.262;2022-09-12T16:55:20;23.10;44.30
27823;DHT22;29019;47.630;8.262;2022-09-12T16:59:21;23.10;44.40
27823;DHT22;29019;47.630;8.262;2022-09-12T17:03:21;23.10;44.30
27823;DHT22;29019;47.630;8.262;2022-09-12T17:07:22;23.10;44.30
27823;DHT22;29019;47.630;8.262;2022-09-12T17:11:27;23.10;44.30
27823;DHT22;29019;47.630;8.262;2022-09-12T17:15:30;23.10;44.30
27823;DHT22;29019;47.630;8.262;2022-09-12T17:19:30;23.10;44.40
27823;DHT22;29019;47.630;8.262;2022-09-12T17:23:31;23.10;44.30
27823;DHT22;29019;47.630;8.262;2022-09-12T17:27:32;23.10;44.40
27823;DHT22;29019;47.630;8.262;2022-09-12T17:31:33;23.10;44.40
27823;DHT22;29019;47.630;8.262;2022-09-12T17:35:33;23.10;44.40
27823;DHT22;29019;47.630;8.262;2022-09-12T17:39:34;23.00;44.40
27823;DHT22;29019;47.630;8.262;2022-09-12T17:43:35;23.00;44.40
27823;DHT22;29019;47.630;8.262;2022-09-12T17:47:40;23.10;44.50
27823;DHT22;29019;47.630;8.262;2022-09-12T17:51:40;23.00;44.40
27823;DHT22;29019;47.630;8.262;2022-09-12T17:55:42;23.00;44.50
27823;DHT22;29019;47.630;8.262;2022-09-12T17:59:43;23.00;44.50
27823;DHT22;29019;47.630;8.262;2022-09-12T18:03:43;23.00;44.50
27823;DHT22;29019;47.630;8.262;2022-09-12T18:07:45;23.00;44.50
27823;DHT22;29019;47.630;8.262;2022-09-12T18:11:46;23.00;44.50
27823;DHT22;29019;47.630;8.262;2022-09-12T18:15:47;23.00;44.50
27823;DHT22;29019;47.630;8.262;2022-09-12T18:19:47;23.00;44.60
27823;DHT22;29019;47.630;8.262;2022-09-12T18:23:50;23.00;45.10
27823;DHT22;29019;47.630;8.262;2022-09-12T18:27:51;23.00;44.60
27823;DHT22;29019;47.630;8.262;2022-09-12T18:31:52;23.00;45.20
27823;DHT22;29019;47.630;8.262;2022-09-12T18:35:52;22.90;44.60
27823;DHT22;29019;47.630;8.262;2022-09-12T18:39:53;22.90;44.60
27823;DHT22;29019;47.630;8.262;2022-09-12T18:43:55;22.90;44.60
27823;DHT22;29019;47.630;8.262;2022-09-12T18:47:55;22.90;44.60
27823;DHT22;29019;47.630;8.262;2022-09-12T18:51:57;22.90;44.60
27823;DHT22;29019;47.630;8.262;2022-09-12T18:56:00;22.90;44.60
27823;DHT22;29019;47.630;8.262;2022-09-12T19:00:01;22.90;44.60
27823;DHT22;29019;47.630;8.262;2022-09-12T19:04:04;22.90;44.60
27823;DHT22;29019;47.630;8.262;2022-09-12T19:08:04;22.90;44.60
27823;DHT22;29019;47.630;8.262;2022-09-12T19:12:05;22.90;44.70
27823;DHT22;29019;47.630;8.262;2022-09-12T19:16:06;22.90;44.60
27823;DHT22;29019;47.630;8.262;2022-09-12T19:20:08;22.90;44.60
27823;DHT22;29019;47.630;8.262;2022-09-12T19:24:09;22.90;44.60
27823;DHT22;29019;47.630;8.262;2022-09-12T19:28:10;22.90;44.60
27823;DHT22;29019;47.630;8.262;2022-09-12T19:32:10;22.90;44.70
27823;DHT22;29019;47.630;8.262;2022-09-12T19:36:12;22.90;44.70
27823;DHT22;29019;47.630;8.262;2022-09-12T19:40:12;22.90;44.70
27823;DHT22;29019;47.630;8.262;2022-09-12T19:44:13;22.90;44.70
27823;DHT22;29019;47.630;8.262;2022-09-12T19:48:14;22.90;44.70
27823;DHT22;29019;47.630;8.262;2022-09-12T19:52:16;22.90;44.70
27823;DHT22;29019;47.630;8.262;2022-09-12T19:56:16;22.90;44.70
27823;DHT22;29019;47.630;8.262;2022-09-12T20:00:17;22.90;44.70
27823;DHT22;29019;47.630;8.262;2022-09-12T20:04:17;22.90;44.70
27823;DHT22;29019;47.630;8.262;2022-09-12T20:08:18;22.90;44.70
27823;DHT22;29019;47.630;8.262;2022-09-12T20:12:18;22.90;44.70
27823;DHT22;29019;47.630;8.262;2022-09-12T20:16:20;22.90;44.70
27823;DHT22;29019;47.630;8.262;2022-09-12T20:20:21;22.90;44.70
27823;DHT22;29019;47.630;8.262;2022-09-12T20:24:24;22.90;44.70
27823;DHT22;29019;47.630;8.262;2022-09-12T20:28:24;22.90;44.70
27823;DHT22;29019;47.630;8.262;2022-09-12T20:32:25;22.80;44.70
27823;DHT22;29019;47.630;8.262;2022-09-12T20:36:27;22.80;44.70
27823;DHT22;29019;47.630;8.262;2022-09-12T20:40:28;22.80;44.70
27823;DHT22;29019;47.630;8.262;2022-09-12T20:44:28;22.80;44.70
27823;DHT22;29019;47.630;8.262;2022-09-12T20:48:29;22.80;44.70
27823;DHT22;29019;47.630;8.262;2022-09-12T20:52:29;22.90;44.80
27823;DHT22;29019;47.630;8.262;2022-09-12T20:56:31;22.80;44.70
27823;DHT22;29019;47.630;8.262;2022-09-12T21:00:32;22.80;44.70
27823;DHT22;29019;47.630;8.262;2022-09-12T21:04:32;22.80;44.70
27823;DHT22;29019;47.630;8.262;2022-09-12T21:08:33;22.80;44.70
27823;DHT22;29019;47.630;8.262;2022-09-12T21:12:34;22.80;44.80
27823;DHT22;29019;47.630;8.262;2022-09-12T21:16:34;22.80;44.80
27823;DHT22;29019;47.630;8.262;2022-09-12T21:20:37;22.80;44.80
27823;DHT22;29019;47.630;8.262;2022-09-12T21:24:38;22.80;44.80
27823;DHT22;29019;47.630;8.262;2022-09-12T21:28:38;22.80;44.80
27823;DHT22;29019;47.630;8.262;2022-09-12T21:32:39;22.80;44.80
27823;DHT22;29019;47.630;8.262;2022-09-12T21:36:39;22.80;44.80
27823;DHT22;29019;47.630;8.262;2022-09-12T21:40:39;22.80;44.80
27823;DHT22;29019;47.630;8.262;2022-09-12T21:44:40;22.80;44.80
27823;DHT22;29019;47.630;8.262;2022-09-12T21:48:41;22.80;44.80
27823;DHT22;29019;47.630;8.262;2022-09-12T21:52:41;22.80;45.30
27823;DHT22;29019;47.630;8.262;2022-09-12T21:56:42;22.70;44.80
27823;DHT22;29019;47.630;8.262;2022-09-12T22:00:42;22.80;44.90
27823;DHT22;29019;47.630;8.262;2022-09-12T22:04:43;22.70;44.80
27823;DHT22;29019;47.630;8.262;2022-09-12T22:08:43;22.80;44.90
27823;DHT22;29019;47.630;8.262;2022-09-12T22:12:44;22.70;44.80
27823;DHT22;29019;47.630;8.262;2022-09-12T22:16:44;22.70;44.80
27823;DHT22;29019;47.630;8.262;2022-09-12T22:20:44;22.70;44.90
27823;DHT22;29019;47.630;8.262;2022-09-12T22:24:45;22.70;44.90
27823;DHT22;29019;47.630;8.262;2022-09-12T22:28:45;22.70;44.90
27823;DHT22;29019;47.630;8.262;2022-09-12T22:32:47;22.70;44.90
27823;DHT22;29019;47.630;8.262;2022-09-12T22:36:48;22.70;44.90
27823;DHT22;29019;47.630;8.262;2022-09-12T22:40:49;22.70;44.90
27823;DHT22;29019;47.630;8.262;2022-09-12T22:44:49;22.70;45.00
27823;DHT22;29019;47.630;8.262;2022-09-12T22:48:50;22.70;44.90
27823;DHT22;29019;47.630;8.262;2022-09-12T22:52:51;22.70;44.90
27823;DHT22;29019;47.630;8.262;2022-09-12T22:56:51;22.70;44.90
27823;DHT22;29019;47.630;8.262;2022-09-12T23:00:52;22.70;44.90
27823;DHT22;29019;47.630;8.262;2022-09-12T23:04:52;22.70;45.00
27823;DHT22;29019;47.630;8.262;2022-09-12T23:08:53;22.70;44.90
27823;DHT22;29019;47.630;8.262;2022-09-12T23:12:55;22.70;44.90
27823;DHT22;29019;47.630;8.262;2022-09-12T23:16:55;22.60;44.90
27823;DHT22;29019;47.630;8.262;2022-09-12T23:21:01;22.60;44.90
27823;DHT22;29019;47.630;8.262;2022-09-12T23:25:02;22.60;44.90
27823;DHT22;29019;47.630;8.262;2022-09-12T23:29:03;22.70;44.90
27823;DHT22;29019;47.630;8.262;2022-09-12T23:33:04;22.60;44.90
27823;DHT22;29019;47.630;8.262;2022-09-12T23:37:05;22.60;44.90
27823;DHT22;29019;47.630;8.262;2022-09-12T23:41:06;22.60;44.90
27823;DHT22;29019;47.630;8.262;2022-09-12T23:45:06;22.60;44.90
27823;DHT22;29019;47.630;8.262;2022-09-12T23:49:07;22.60;44.90
27823;DHT22;29019;47.630;8.262;2022-09-12T23:53:08;22.60;44.90
27823;DHT22;29019;47.630;8.262;2022-09-12T23:57:08;22.60;44.90
